createdAt,value
2019-01-03T00:01:20.694Z,91.80
2019-01-03T00:04:19.446Z,91.80
2019-01-03T00:07:10.598Z,91.80
2019-01-03T00:09:57.401Z,91.80
2019-01-03T00:12:44.610Z,91.90
2019-01-03T00:15:35.985Z,92.00
2019-01-03T00:18:24.002Z,92.10
2019-01-03T00:21:11.079Z,92.10
2019-01-03T00:24:05.469Z,92.10
2019-01-03T00:27:09.161Z,92.20
2019-01-03T00:30:00.409Z,92.10
2019-01-03T00:32:55.781Z,92.00
2019-01-03T00:35:43.012Z,92.00
2019-01-03T00:38:40.334Z,92.20
2019-01-03T00:41:31.656Z,92.10
2019-01-03T00:44:35.357Z,92.30
2019-01-03T00:47:26.454Z,92.40
2019-01-03T00:50:15.738Z,92.60
2019-01-03T00:53:07.187Z,92.90
2019-01-03T00:55:54.424Z,93.00
2019-01-03T00:58:42.707Z,93.20
2019-01-03T01:01:46.360Z,93.20
2019-01-03T01:04:49.831Z,93.20
2019-01-03T01:07:36.935Z,93.50
2019-01-03T01:10:25.205Z,93.60
2019-01-03T01:13:12.454Z,93.80
2019-01-03T01:15:53.088Z,93.70
2019-01-03T01:18:46.837Z,93.50
2019-01-03T01:21:34.144Z,93.20
2019-01-03T01:24:32.972Z,93.10
2019-01-03T01:27:20.216Z,92.90
2019-01-03T01:30:07.043Z,92.90
2019-01-03T01:32:58.685Z,92.90
2019-01-03T01:35:46.029Z,93.00
2019-01-03T01:38:39.173Z,93.10
2019-01-03T01:41:33.377Z,93.10
2019-01-03T01:44:23.088Z,93.00
2019-01-03T01:47:20.453Z,93.00
2019-01-03T01:50:08.824Z,93.30
2019-01-03T01:53:12.633Z,93.50
2019-01-03T01:55:59.427Z,93.60
2019-01-03T01:58:59.791Z,93.50
2019-01-03T02:01:41.500Z,93.40
2019-01-03T02:04:29.777Z,93.50
2019-01-03T02:07:14.405Z,93.40
2019-01-03T02:10:16.647Z,93.30
2019-01-03T02:13:20.224Z,93.30
2019-01-03T02:15:58.450Z,93.40
2019-01-03T02:18:46.717Z,93.20
2019-01-03T02:21:37.988Z,93.20
2019-01-03T02:24:25.150Z,93.30
2019-01-03T02:27:16.948Z,93.40
2019-01-03T02:30:15.075Z,93.50
2019-01-03T02:33:02.264Z,93.60
2019-01-03T02:35:54.841Z,93.80
2019-01-03T02:38:41.578Z,93.80
2019-01-03T02:41:42.206Z,93.60
2019-01-03T02:44:39.530Z,93.60
2019-01-03T02:47:30.417Z,93.70
2019-01-03T02:50:30.898Z,93.90
2019-01-03T02:53:28.351Z,93.50
2019-01-03T02:56:15.379Z,93.40
2019-01-03T02:58:56.161Z,93.40
2019-01-03T03:01:50.675Z,93.40
2019-01-03T03:04:41.798Z,93.60
2019-01-03T03:07:26.033Z,93.70
2019-01-03T03:10:08.226Z,93.80
2019-01-03T03:12:59.441Z,94.00
2019-01-03T03:15:59.975Z,94.50
2019-01-03T03:19:00.300Z,94.20
2019-01-03T03:21:54.794Z,94.10
2019-01-03T03:24:46.164Z,93.90
2019-01-03T03:27:28.429Z,94.00
2019-01-03T03:30:19.721Z,94.00
2019-01-03T03:33:10.813Z,94.10
2019-01-03T03:36:01.832Z,93.90
2019-01-03T03:38:48.847Z,94.10
2019-01-03T03:41:32.072Z,94.40
2019-01-03T03:44:19.245Z,94.70
2019-01-03T03:47:01.357Z,94.60
2019-01-03T03:49:55.925Z,94.40
2019-01-03T03:52:43.364Z,94.30
2019-01-03T03:55:22.629Z,94.30
2019-01-03T03:58:23.031Z,94.00
2019-01-03T04:01:11.282Z,94.10
2019-01-03T04:04:08.448Z,94.00
2019-01-03T04:07:09.124Z,94.00
2019-01-03T04:10:06.522Z,93.60
2019-01-03T04:12:47.381Z,93.70
2019-01-03T04:15:50.777Z,93.60
2019-01-03T04:18:54.371Z,93.70
2019-01-03T04:21:40.953Z,93.60
2019-01-03T04:24:37.449Z,93.60
2019-01-03T04:27:29.663Z,93.30
2019-01-03T04:30:17.092Z,93.20
2019-01-03T04:33:04.377Z,93.10
2019-01-03T04:35:54.389Z,93.20
2019-01-03T04:38:51.841Z,93.20
2019-01-03T04:41:38.722Z,93.30
2019-01-03T04:44:30.041Z,93.50
2019-01-03T04:47:18.471Z,93.70
2019-01-03T04:50:24.994Z,93.70
2019-01-03T04:53:16.407Z,92.90
2019-01-03T04:56:13.684Z,92.80
2019-01-03T04:58:58.476Z,93.00
2019-01-03T05:02:07.830Z,93.00
2019-01-03T05:04:54.804Z,93.30
2019-01-03T05:07:58.265Z,93.30
2019-01-03T05:11:04.650Z,93.20
2019-01-03T05:13:52.917Z,93.30
2019-01-03T05:16:39.806Z,93.40
2019-01-03T05:19:37.166Z,93.50
2019-01-03T05:22:24.421Z,93.50
2019-01-03T05:25:11.632Z,93.20
2019-01-03T05:28:03.032Z,93.30
2019-01-03T05:30:51.271Z,93.30
2019-01-03T05:33:48.914Z,92.80
2019-01-03T05:36:46.986Z,92.80
2019-01-03T05:39:39.483Z,92.60
2019-01-03T05:42:27.741Z,93.00
2019-01-03T05:45:13.593Z,93.30
2019-01-03T05:48:11.172Z,93.20
2019-01-03T05:50:58.544Z,93.10
2019-01-03T05:54:05.221Z,93.30
2019-01-03T05:56:53.537Z,93.10
2019-01-03T05:59:40.402Z,93.20
2019-01-03T06:02:37.926Z,93.20
2019-01-03T06:05:26.208Z,93.10
2019-01-03T06:08:32.809Z,93.00
2019-01-03T06:11:27.729Z,93.20
2019-01-03T06:14:29.153Z,93.10
2019-01-03T06:17:23.841Z,93.20
2019-01-03T06:20:21.258Z,93.20
2019-01-03T06:23:26.232Z,93.20
2019-01-03T06:26:08.719Z,93.20
2019-01-03T06:28:55.908Z,93.20
2019-01-03T06:31:47.346Z,93.10
2019-01-03T06:34:44.416Z,93.10
2019-01-03T06:37:32.742Z,93.30
2019-01-03T06:40:18.616Z,93.10
2019-01-03T06:43:03.992Z,93.10
2019-01-03T06:45:52.307Z,92.90
2019-01-03T06:48:55.758Z,93.10
2019-01-03T06:51:42.614Z,93.00
2019-01-03T06:54:30.076Z,92.90
2019-01-03T06:57:21.409Z,93.00
2019-01-03T07:00:09.635Z,93.10
2019-01-03T07:03:06.789Z,93.00
2019-01-03T07:05:53.653Z,92.90
2019-01-03T07:08:40.608Z,92.80
2019-01-03T07:11:27.956Z,92.80
2019-01-03T07:14:20.160Z,92.60
2019-01-03T07:17:27.039Z,92.60
2019-01-03T07:20:21.617Z,92.70
2019-01-03T07:23:05.880Z,92.60
2019-01-03T07:26:12.233Z,92.40
2019-01-03T07:28:59.420Z,92.40
2019-01-03T07:31:47.701Z,92.30
2019-01-03T07:34:35.014Z,92.30
2019-01-03T07:37:22.109Z,92.30
2019-01-03T07:40:10.730Z,92.40
2019-01-03T07:42:57.662Z,92.40
2019-01-03T07:45:47.098Z,92.00
2019-01-03T07:48:33.962Z,91.80
2019-01-03T07:51:21.291Z,91.40
2019-01-03T07:54:07.522Z,91.30
2019-01-03T07:56:54.547Z,91.10
2019-01-03T08:00:01.021Z,90.90
2019-01-03T08:02:52.067Z,91.10
2019-01-03T08:05:52.401Z,90.80
2019-01-03T08:08:50.145Z,90.70
2019-01-03T08:11:37.478Z,90.70
2019-01-03T08:14:22.080Z,90.80
2019-01-03T08:17:16.216Z,91.00
2019-01-03T08:20:10.362Z,91.10
2019-01-03T08:22:53.176Z,91.00
2019-01-03T08:25:44.350Z,91.10
2019-01-03T08:28:31.346Z,91.00
2019-01-03T08:31:18.629Z,90.80
2019-01-03T08:34:05.835Z,90.80
2019-01-03T08:36:53.030Z,91.10
2019-01-03T08:39:56.490Z,91.50
2019-01-03T08:42:43.709Z,90.70
2019-01-03T08:45:30.756Z,90.70
2019-01-03T08:48:22.515Z,90.80
2019-01-03T08:51:09.616Z,90.60
2019-01-03T08:53:56.509Z,90.20
2019-01-03T08:56:54.078Z,90.10
2019-01-03T08:59:57.733Z,90.20
2019-01-03T09:02:51.897Z,89.90
2019-01-03T09:05:52.569Z,89.00
2019-01-03T09:08:40.844Z,89.30
2019-01-03T09:11:28.315Z,89.20
2019-01-03T09:14:15.412Z,88.40
2019-01-03T09:17:02.629Z,88.00
2019-01-03T09:19:46.587Z,88.20
2019-01-03T09:22:40.671Z,87.30
2019-01-03T09:25:27.927Z,86.10
2019-01-03T09:28:13.338Z,86.00
2019-01-03T09:31:04.626Z,85.70
2019-01-03T09:33:51.890Z,84.60
2019-01-03T09:36:34.609Z,84.50
2019-01-03T09:39:21.824Z,84.20
2019-01-03T09:42:07.116Z,83.60
2019-01-03T09:44:53.479Z,83.30
2019-01-03T09:47:22.695Z,83.80
2019-01-03T09:49:51.928Z,82.70
2019-01-03T09:52:21.202Z,82.90
2019-01-03T09:54:50.435Z,83.20
2019-01-03T09:57:19.677Z,82.90
2019-01-03T09:59:48.910Z,83.20
2019-01-03T10:02:19.148Z,82.60
2019-01-03T10:04:48.339Z,82.60
2019-01-03T10:07:17.667Z,82.40
2019-01-03T10:09:46.985Z,81.90
2019-01-03T10:12:16.224Z,81.80
2019-01-03T10:14:47.180Z,81.70
2019-01-03T10:17:16.371Z,82.10
2019-01-03T10:19:45.741Z,81.50
2019-01-03T10:22:15.078Z,82.60
2019-01-03T10:24:44.320Z,82.50
2019-01-03T10:27:13.597Z,81.40
2019-01-03T10:29:42.958Z,81.20
2019-01-03T10:32:12.281Z,80.60
2019-01-03T10:34:41.487Z,80.50
2019-01-03T10:37:12.283Z,80.60
2019-01-03T10:39:41.509Z,80.70
2019-01-03T10:42:10.743Z,80.80
2019-01-03T10:44:40.018Z,80.90
2019-01-03T10:47:09.266Z,81.00
2019-01-03T10:49:38.484Z,80.20
2019-01-03T10:52:07.765Z,80.80
2019-01-03T10:54:39.859Z,80.60
2019-01-03T10:57:09.200Z,81.10
2019-01-03T10:59:38.493Z,81.40
2019-01-03T11:02:07.835Z,81.60
2019-01-03T11:04:37.130Z,81.50
2019-01-03T11:07:06.414Z,82.20
2019-01-03T11:09:35.876Z,82.40
2019-01-03T11:12:05.199Z,82.30
2019-01-03T11:14:34.510Z,81.80
2019-01-03T11:17:03.763Z,82.60
2019-01-03T11:19:33.077Z,82.50
2019-01-03T11:22:02.445Z,83.00
2019-01-03T11:24:50.745Z,83.40
2019-01-03T11:27:20.094Z,83.30
2019-01-03T11:29:49.326Z,83.90
2019-01-03T11:32:18.539Z,84.30
2019-01-03T11:34:47.947Z,84.80
2019-01-03T11:37:17.145Z,85.10
2019-01-03T11:39:46.447Z,85.40
2019-01-03T11:42:15.721Z,85.10
2019-01-03T11:44:44.948Z,85.20
2019-01-03T11:47:14.167Z,85.60
2019-01-03T11:49:43.502Z,84.80
2019-01-03T11:52:12.763Z,84.90
2019-01-03T11:54:42.138Z,85.40
2019-01-03T11:57:11.386Z,85.90
2019-01-03T11:59:41.105Z,86.10
2019-01-03T12:02:10.345Z,86.40
2019-01-03T12:04:39.649Z,86.60
2019-01-03T12:07:08.964Z,86.60
2019-01-03T12:09:38.291Z,86.80
2019-01-03T12:12:07.535Z,87.10
2019-01-03T12:14:36.838Z,87.40
2019-01-03T12:17:06.165Z,87.60
2019-01-03T12:19:35.542Z,88.00
2019-01-03T12:22:04.852Z,88.10
2019-01-03T12:24:34.138Z,88.50
2019-01-03T12:27:03.425Z,88.00
2019-01-03T12:29:32.683Z,88.30
2019-01-03T12:32:02.137Z,88.60
2019-01-03T12:34:31.425Z,88.80
2019-01-03T12:37:00.629Z,88.60
2019-01-03T12:39:30.611Z,88.70
2019-01-03T12:42:00.055Z,89.00
2019-01-03T12:44:29.429Z,89.00
2019-01-03T12:46:58.675Z,89.20
2019-01-03T12:49:28.084Z,89.20
2019-01-03T12:51:57.451Z,89.90
2019-01-03T12:54:26.780Z,90.20
2019-01-03T12:56:56.109Z,90.00
2019-01-03T12:59:25.322Z,90.10
2019-01-03T13:01:54.721Z,90.20
2019-01-03T13:04:24.101Z,90.30
2019-01-03T13:06:53.453Z,90.30
2019-01-03T13:09:22.717Z,90.40
2019-01-03T13:11:52.010Z,90.40
2019-01-03T13:14:21.228Z,90.20
2019-01-03T13:16:50.568Z,90.40
2019-01-03T13:19:19.923Z,90.60
2019-01-03T13:21:49.151Z,90.60
2019-01-03T13:24:18.577Z,90.70
2019-01-03T13:26:47.915Z,90.80
2019-01-03T13:29:17.097Z,90.60
2019-01-03T13:31:46.353Z,90.80
2019-01-03T13:34:15.694Z,90.80
2019-01-03T13:36:45.086Z,90.80
2019-01-03T13:39:14.490Z,90.90
2019-01-03T13:41:44.123Z,91.00
2019-01-03T13:44:13.474Z,91.20
2019-01-03T13:46:42.805Z,91.20
2019-01-03T13:49:12.074Z,91.30
2019-01-03T13:51:41.353Z,91.50
2019-01-03T13:54:10.625Z,91.50
2019-01-03T13:56:39.957Z,91.80
2019-01-03T13:59:15.053Z,91.90
2019-01-03T14:01:53.340Z,91.80
2019-01-03T14:04:22.614Z,92.00
2019-01-03T14:06:51.942Z,92.30
2019-01-03T14:09:21.286Z,92.20
2019-01-03T14:11:50.543Z,92.40
2019-01-03T14:14:19.789Z,92.50
2019-01-03T14:16:49.042Z,92.60
2019-01-03T14:19:18.289Z,92.90
2019-01-03T14:21:47.533Z,92.80
2019-01-03T14:24:16.805Z,93.00
2019-01-03T14:26:46.021Z,93.10
2019-01-03T14:29:15.250Z,93.20
2019-01-03T14:31:44.547Z,93.40
2019-01-03T14:34:13.770Z,93.50
2019-01-03T14:36:43.057Z,93.60
2019-01-03T14:39:12.315Z,93.80
2019-01-03T14:41:41.558Z,94.00
2019-01-03T14:44:10.801Z,94.10
2019-01-03T14:46:40.098Z,94.20
2019-01-03T14:49:09.377Z,94.00
2019-01-03T14:51:38.605Z,94.40
2019-01-03T14:54:35.173Z,94.30
2019-01-03T14:57:08.002Z,94.30
2019-01-03T14:59:37.361Z,94.40
2019-01-03T15:02:06.654Z,94.40
2019-01-03T15:04:35.881Z,94.40
2019-01-03T15:07:05.271Z,94.50
2019-01-03T15:09:34.652Z,94.40
2019-01-03T15:12:03.935Z,94.30
2019-01-03T15:14:33.329Z,94.40
2019-01-03T15:17:02.630Z,94.30
2019-01-03T15:19:31.971Z,94.00
2019-01-03T15:22:01.439Z,94.10
2019-01-03T15:24:30.775Z,94.20
2019-01-03T15:27:00.005Z,94.20
2019-01-03T15:29:29.253Z,94.40
2019-01-03T15:31:58.589Z,94.30
2019-01-03T15:34:27.977Z,94.40
2019-01-03T15:36:57.245Z,94.40
2019-01-03T15:39:26.506Z,94.40
2019-01-03T15:41:55.805Z,94.40
2019-01-03T15:44:25.146Z,94.40
2019-01-03T15:46:54.408Z,94.40
2019-01-03T15:49:23.762Z,94.40
2019-01-03T15:51:53.041Z,94.50
2019-01-03T15:54:22.367Z,94.50
2019-01-03T15:56:51.625Z,94.50
2019-01-03T15:59:20.956Z,94.60
2019-01-03T16:01:50.171Z,94.60
2019-01-03T16:04:19.479Z,94.50
2019-01-03T16:06:48.738Z,94.60
2019-01-03T16:09:17.969Z,94.80
2019-01-03T16:11:48.340Z,94.80
2019-01-03T16:14:17.766Z,94.50
2019-01-03T16:16:47.071Z,95.00
2019-01-03T16:19:16.344Z,94.70
2019-01-03T16:21:45.673Z,94.60
2019-01-03T16:24:14.885Z,94.70
2019-01-03T16:26:44.257Z,94.60
2019-01-03T16:29:13.526Z,94.70
2019-01-03T16:31:42.806Z,94.70
2019-01-03T16:34:12.042Z,94.80
2019-01-03T16:36:41.370Z,95.10
2019-01-03T16:39:10.604Z,95.30
2019-01-03T16:41:39.918Z,95.50
2019-01-03T16:44:09.174Z,95.20
2019-01-03T16:46:38.383Z,95.40
2019-01-03T16:49:07.604Z,95.20
2019-01-03T16:51:36.879Z,95.60
2019-01-03T16:54:06.105Z,95.40
2019-01-03T16:56:35.327Z,95.50
2019-01-03T16:59:04.616Z,95.30
2019-01-03T17:01:33.866Z,95.20
2019-01-03T17:04:03.098Z,95.20
2019-01-03T17:06:32.574Z,95.20
2019-01-03T17:09:01.911Z,95.30
2019-01-03T17:11:31.221Z,95.50
2019-01-03T17:14:00.486Z,95.30
2019-01-03T17:16:29.719Z,95.40
2019-01-03T17:18:58.949Z,95.40
2019-01-03T17:21:28.297Z,95.30
2019-01-03T17:23:58.197Z,95.20
2019-01-03T17:26:27.615Z,95.20
2019-01-03T17:28:56.994Z,95.20
2019-01-03T17:31:26.237Z,95.30
2019-01-03T17:33:55.554Z,95.40
2019-01-03T17:36:24.948Z,95.30
2019-01-03T17:38:54.229Z,95.40
2019-01-03T17:41:23.567Z,95.30
2019-01-03T17:43:52.969Z,95.50
2019-01-03T17:46:22.223Z,95.70
2019-01-03T17:48:52.286Z,95.70
2019-01-03T17:51:21.632Z,95.70
2019-01-03T17:53:51.136Z,96.00
2019-01-03T17:56:23.552Z,95.80
2019-01-03T17:58:52.945Z,96.00
2019-01-03T18:01:22.355Z,96.10
2019-01-03T18:03:51.889Z,96.00
2019-01-03T18:06:21.297Z,96.00
2019-01-03T18:08:50.518Z,96.00
2019-01-03T18:11:19.800Z,96.20
2019-01-03T18:13:49.110Z,96.20
2019-01-03T18:16:18.508Z,95.90
2019-01-03T18:18:47.752Z,96.20
2019-01-03T18:21:17.139Z,96.00
2019-01-03T18:23:46.534Z,96.30
2019-01-03T18:26:16.068Z,96.20
2019-01-03T18:28:45.523Z,95.90
2019-01-03T18:31:14.979Z,95.90
2019-01-03T18:33:44.273Z,96.00
2019-01-03T18:36:13.539Z,96.00
2019-01-03T18:38:42.766Z,96.10
2019-01-03T18:41:13.146Z,96.20
2019-01-03T18:43:42.388Z,96.20
2019-01-03T18:46:11.638Z,96.50
2019-01-03T18:48:40.880Z,96.50
2019-01-03T18:51:10.147Z,96.50
2019-01-03T18:53:39.443Z,96.80
2019-01-03T18:56:08.665Z,96.70
2019-01-03T18:58:37.933Z,96.60
2019-01-03T19:01:07.247Z,96.70
2019-01-03T19:03:36.557Z,96.90
2019-01-03T19:06:05.850Z,97.00
2019-01-03T19:08:35.156Z,97.00
2019-01-03T19:11:04.418Z,97.30
2019-01-03T19:13:33.886Z,97.00
2019-01-03T19:16:03.198Z,97.00
2019-01-03T19:18:32.439Z,97.10
2019-01-03T19:21:01.678Z,97.40
2019-01-03T19:23:30.913Z,97.20
2019-01-03T19:26:00.731Z,97.30
2019-01-03T19:28:30.029Z,97.50
2019-01-03T19:30:59.294Z,97.50
2019-01-03T19:33:28.542Z,97.30
2019-01-03T19:35:57.911Z,97.20
2019-01-03T19:38:27.212Z,97.30
2019-01-03T19:40:56.766Z,97.40
2019-01-03T19:43:26.116Z,97.30
2019-01-03T19:45:55.319Z,97.30
2019-01-03T19:48:24.526Z,97.30
2019-01-03T19:50:53.922Z,97.50
2019-01-03T19:53:23.393Z,97.40
2019-01-03T19:55:52.671Z,97.40
2019-01-03T19:58:21.923Z,97.40
2019-01-03T20:00:51.210Z,97.50
2019-01-03T20:03:20.454Z,97.40
2019-01-03T20:05:49.836Z,97.40
2019-01-03T20:08:19.067Z,97.60
2019-01-03T20:10:48.311Z,97.50
2019-01-03T20:13:17.565Z,97.50
2019-01-03T20:15:46.863Z,97.50
2019-01-03T20:18:16.089Z,97.50
2019-01-03T20:20:46.299Z,97.40
2019-01-03T20:23:15.543Z,97.50
2019-01-03T20:25:44.772Z,97.60
2019-01-03T20:28:14.098Z,97.60
2019-01-03T20:30:43.402Z,97.60
2019-01-03T20:33:12.706Z,97.60
2019-01-03T20:35:41.980Z,97.50
2019-01-03T20:38:11.298Z,97.40
2019-01-03T20:40:40.527Z,97.30
2019-01-03T20:43:09.881Z,97.30
2019-01-03T20:45:39.184Z,97.30
2019-01-03T20:48:08.423Z,97.30
2019-01-03T20:50:37.718Z,97.30
2019-01-03T20:53:07.072Z,97.20
2019-01-03T20:55:36.374Z,97.40
2019-01-03T20:58:05.640Z,97.20
2019-01-03T21:00:34.862Z,97.30
2019-01-03T21:03:04.298Z,97.30
2019-01-03T21:05:33.617Z,97.20
2019-01-03T21:08:02.849Z,97.10
2019-01-03T21:10:32.181Z,97.20
2019-01-03T21:13:01.460Z,97.20
2019-01-03T21:15:30.736Z,97.20
2019-01-03T21:18:00.013Z,97.20
2019-01-03T21:20:29.443Z,97.30
2019-01-03T21:22:58.687Z,97.30
2019-01-03T21:25:27.956Z,97.30
2019-01-03T21:27:58.954Z,97.20
2019-01-03T21:30:28.216Z,97.30
2019-01-03T21:32:57.518Z,97.30
2019-01-03T21:35:26.788Z,97.30
2019-01-03T21:38:15.208Z,97.30
2019-01-03T21:40:44.466Z,97.30
2019-01-03T21:43:13.836Z,97.40
2019-01-03T21:45:43.123Z,97.40
2019-01-03T21:48:12.416Z,97.40
2019-01-03T21:50:41.805Z,97.40
2019-01-03T21:53:11.103Z,97.40
2019-01-03T21:55:40.451Z,97.50
2019-01-03T21:58:09.790Z,97.50
2019-01-03T22:00:39.141Z,97.60
2019-01-03T22:03:08.473Z,97.70
2019-01-03T22:05:38.050Z,97.60
2019-01-03T22:08:07.350Z,97.60
2019-01-03T22:10:36.706Z,97.80
2019-01-03T22:13:06.040Z,97.70
2019-01-03T22:15:35.326Z,97.70
2019-01-03T22:18:04.570Z,97.80
2019-01-03T22:20:33.815Z,97.70
2019-01-03T22:23:03.081Z,97.80
2019-01-03T22:25:32.411Z,97.90
2019-01-03T22:28:01.643Z,98.00
2019-01-03T22:30:30.875Z,98.00
2019-01-03T22:33:00.198Z,98.00
2019-01-03T22:35:29.538Z,98.20
2019-01-03T22:37:58.830Z,98.20
2019-01-03T22:40:28.271Z,98.50
2019-01-03T22:42:57.531Z,98.50
2019-01-03T22:45:26.943Z,98.30
2019-01-03T22:47:56.283Z,98.30
2019-01-03T22:50:25.559Z,98.20
2019-01-03T22:52:54.795Z,98.20
2019-01-03T22:55:24.066Z,98.30
2019-01-03T22:57:53.286Z,98.30
2019-01-03T23:00:33.110Z,98.30
2019-01-03T23:03:02.822Z,98.20
2019-01-03T23:05:32.476Z,98.30
2019-01-03T23:08:01.791Z,98.40
2019-01-03T23:10:31.197Z,98.20
2019-01-03T23:13:00.470Z,98.40
2019-01-03T23:15:29.822Z,98.40
2019-01-03T23:17:59.199Z,98.30
2019-01-03T23:20:29.021Z,98.50
2019-01-03T23:22:58.365Z,98.50
2019-01-03T23:25:27.702Z,98.30
2019-01-03T23:27:56.965Z,98.50
2019-01-03T23:30:29.368Z,98.40
2019-01-03T23:32:58.810Z,98.20
2019-01-03T23:35:28.097Z,98.20
2019-01-03T23:37:57.449Z,98.20
2019-01-03T23:40:26.893Z,98.30
2019-01-03T23:42:56.335Z,98.40
2019-01-03T23:45:26.523Z,98.30
2019-01-03T23:47:57.405Z,98.30
2019-01-03T23:50:29.084Z,98.30
2019-01-03T23:52:58.462Z,98.40
2019-01-03T23:55:28.739Z,98.40
2019-01-03T23:57:58.063Z,98.30
